createdAt,value
2022-10-19T00:00:21.371Z,99.99
2022-10-19T00:01:21.410Z,99.99
2022-10-19T00:02:21.689Z,99.99
2022-10-19T00:03:23.240Z,99.99
2022-10-19T00:04:21.891Z,99.99
2022-10-19T00:05:22.032Z,99.99
2022-10-19T00:06:22.190Z,99.99
2022-10-19T00:07:22.338Z,99.99
2022-10-19T00:08:22.544Z,99.99
2022-10-19T00:09:22.660Z,99.99
2022-10-19T00:10:22.749Z,99.99
2022-10-19T00:11:22.911Z,99.99
2022-10-19T00:12:23.080Z,99.99
2022-10-19T00:13:23.242Z,99.99
2022-10-19T00:14:23.420Z,99.99
2022-10-19T00:15:23.520Z,99.99
2022-10-19T00:16:23.675Z,99.99
2022-10-19T00:17:23.823Z,99.99
2022-10-19T00:18:24.012Z,99.99
2022-10-19T00:19:24.140Z,99.99
2022-10-19T00:20:24.275Z,99.99
2022-10-19T00:21:24.465Z,99.99
2022-10-19T00:22:24.564Z,99.99
2022-10-19T00:23:24.717Z,99.99
2022-10-19T00:24:24.904Z,99.99
2022-10-19T00:25:25.071Z,99.99
2022-10-19T00:26:25.195Z,99.99
2022-10-19T00:27:25.293Z,99.99
2022-10-19T00:28:25.472Z,99.99
2022-10-19T00:29:25.548Z,99.99
2022-10-19T00:30:25.674Z,99.99
2022-10-19T00:31:25.798Z,99.99
2022-10-19T00:32:25.956Z,99.99
2022-10-19T00:33:26.112Z,99.99
2022-10-19T00:34:26.350Z,99.99
2022-10-19T00:35:26.447Z,99.99
2022-10-19T00:36:26.628Z,99.99
2022-10-19T00:37:26.851Z,99.99
2022-10-19T00:38:26.959Z,99.99
2022-10-19T00:39:27.142Z,99.99
2022-10-19T00:40:27.249Z,99.99
2022-10-19T00:41:27.345Z,99.99
2022-10-19T00:42:27.507Z,99.99
2022-10-19T00:43:27.671Z,99.99
2022-10-19T00:44:27.825Z,99.99
2022-10-19T00:45:27.932Z,99.99
2022-10-19T00:46:28.049Z,99.99
2022-10-19T00:47:28.208Z,99.99
2022-10-19T00:48:28.391Z,99.99
2022-10-19T00:49:28.584Z,99.99
2022-10-19T00:50:28.726Z,99.99
2022-10-19T00:51:28.922Z,99.99
2022-10-19T00:52:29.092Z,99.99
2022-10-19T00:53:29.275Z,99.99
2022-10-19T00:54:29.353Z,99.99
2022-10-19T00:55:29.442Z,99.99
2022-10-19T00:56:29.732Z,99.99
2022-10-19T00:57:29.740Z,99.99
2022-10-19T00:58:29.891Z,99.99
2022-10-19T00:59:30.054Z,99.99
2022-10-19T01:00:30.196Z,99.99
2022-10-19T01:01:30.388Z,99.99
2022-10-19T01:02:30.770Z,99.99
2022-10-19T01:03:30.607Z,99.99
2022-10-19T01:04:30.792Z,99.99
2022-10-19T01:05:30.940Z,99.99
2022-10-19T01:06:31.146Z,99.99
2022-10-19T01:07:31.451Z,99.99
2022-10-19T01:08:31.412Z,99.99
2022-10-19T01:09:31.569Z,99.99
2022-10-19T01:10:31.772Z,99.99
2022-10-19T01:11:31.835Z,99.99
2022-10-19T01:12:32.010Z,99.99
2022-10-19T01:13:32.205Z,99.99
2022-10-19T01:14:32.909Z,99.99
2022-10-19T01:15:32.442Z,99.99
2022-10-19T01:16:32.614Z,99.99
2022-10-19T01:17:32.960Z,99.99
2022-10-19T01:18:32.849Z,99.99
2022-10-19T01:19:32.941Z,99.99
2022-10-19T01:20:33.114Z,99.99
2022-10-19T01:21:33.298Z,99.99
2022-10-19T01:22:33.380Z,99.99
2022-10-19T01:23:33.544Z,99.99
2022-10-19T01:24:35.830Z,99.99
2022-10-19T01:25:33.831Z,99.99
2022-10-19T01:26:33.920Z,99.99
2022-10-19T01:27:34.398Z,99.99
2022-10-19T01:28:34.379Z,99.99
2022-10-19T01:29:34.310Z,99.99
2022-10-19T01:30:34.517Z,99.99
2022-10-19T01:31:34.633Z,99.99
2022-10-19T01:32:34.803Z,99.99
2022-10-19T01:33:34.964Z,99.99
2022-10-19T01:34:35.030Z,99.99
2022-10-19T01:35:35.193Z,99.99
2022-10-19T01:36:35.360Z,99.99
2022-10-19T01:37:35.792Z,99.99
2022-10-19T01:38:35.633Z,99.99
2022-10-19T01:39:35.730Z,99.99
2022-10-19T01:40:35.843Z,99.99
2022-10-19T01:41:35.984Z,99.99
2022-10-19T01:42:36.169Z,99.99
2022-10-19T01:43:36.326Z,99.99
2022-10-19T01:44:36.609Z,99.99
2022-10-19T01:45:36.646Z,99.99
2022-10-19T01:46:36.806Z,99.99
2022-10-19T01:47:37.125Z,99.99
2022-10-19T01:48:37.121Z,99.99
2022-10-19T01:49:37.302Z,99.99
2022-10-19T01:50:37.438Z,99.99
2022-10-19T01:51:37.554Z,99.99
2022-10-19T01:52:37.722Z,99.99
2022-10-19T01:53:37.897Z,99.99
2022-10-19T01:54:38.046Z,99.99
2022-10-19T01:55:38.187Z,99.99
2022-10-19T01:56:38.323Z,99.99
2022-10-19T01:57:38.502Z,99.99
2022-10-19T01:58:38.664Z,99.99
2022-10-19T01:59:38.824Z,99.99
2022-10-19T02:00:39.047Z,99.99
2022-10-19T02:01:39.094Z,99.99
2022-10-19T02:02:39.264Z,99.99
2022-10-19T02:03:39.412Z,99.99
2022-10-19T02:04:39.554Z,99.99
2022-10-19T02:05:39.634Z,99.99
2022-10-19T02:06:39.813Z,99.99
2022-10-19T02:07:39.984Z,99.99
2022-10-19T02:08:40.143Z,99.99
2022-10-19T02:09:40.330Z,99.99
2022-10-19T02:10:40.475Z,99.99
2022-10-19T02:11:42.481Z,99.99
2022-10-19T02:12:40.667Z,99.99
2022-10-19T02:13:40.811Z,99.99
2022-10-19T02:14:40.936Z,99.99
2022-10-19T02:15:41.141Z,99.99
2022-10-19T02:16:41.200Z,99.99
2022-10-19T02:17:41.288Z,99.99
2022-10-19T02:18:41.474Z,99.99
2022-10-19T02:19:41.665Z,99.99
2022-10-19T02:20:41.815Z,99.99
2022-10-19T02:21:41.952Z,99.99
2022-10-19T02:22:42.082Z,99.99
2022-10-19T02:23:42.217Z,99.99
2022-10-19T02:24:42.402Z,99.99
2022-10-19T02:25:42.614Z,99.99
2022-10-19T02:26:42.701Z,99.99
2022-10-19T02:27:42.809Z,99.99
2022-10-19T02:28:42.971Z,99.99
2022-10-19T02:29:43.108Z,99.99
2022-10-19T02:30:43.184Z,99.99
2022-10-19T02:31:43.349Z,99.99
2022-10-19T02:32:43.518Z,99.99
2022-10-19T02:33:43.666Z,99.99
2022-10-19T02:34:43.785Z,99.99
2022-10-19T02:35:43.938Z,99.99
2022-10-19T02:36:44.078Z,99.99
2022-10-19T02:37:44.164Z,99.99
2022-10-19T02:38:44.350Z,99.99
2022-10-19T02:39:44.439Z,99.99
2022-10-19T02:40:44.620Z,99.99
2022-10-19T02:41:44.792Z,99.99
2022-10-19T02:42:44.874Z,99.99
2022-10-19T02:43:45.086Z,99.99
2022-10-19T02:44:45.200Z,99.99
2022-10-19T02:45:45.427Z,99.99
2022-10-19T02:46:45.527Z,99.99
2022-10-19T02:47:45.666Z,99.99
2022-10-19T02:48:45.771Z,99.99
2022-10-19T02:49:45.923Z,99.99
2022-10-19T02:50:46.091Z,99.99
2022-10-19T02:51:46.187Z,99.99
2022-10-19T02:52:46.369Z,99.99
2022-10-19T02:53:46.508Z,99.99
2022-10-19T02:54:46.692Z,99.99
2022-10-19T02:55:46.772Z,99.99
2022-10-19T02:56:46.956Z,99.99
2022-10-19T02:57:47.119Z,99.99
2022-10-19T02:58:47.297Z,99.99
2022-10-19T02:59:47.400Z,99.99
2022-10-19T03:00:47.584Z,99.99
2022-10-19T03:01:47.668Z,99.99
2022-10-19T03:02:47.862Z,99.99
2022-10-19T03:03:47.985Z,99.99
2022-10-19T03:05:48.304Z,99.99
2022-10-19T03:06:48.478Z,99.99
2022-10-19T03:07:48.618Z,99.99
2022-10-19T03:08:48.800Z,99.99
2022-10-19T03:09:48.970Z,99.99
2022-10-19T03:10:49.158Z,99.99
2022-10-19T03:11:49.294Z,99.99
2022-10-19T03:12:49.446Z,99.99
2022-10-19T03:13:49.598Z,99.99
2022-10-19T03:14:49.774Z,99.99
2022-10-19T03:15:49.915Z,99.99
2022-10-19T03:16:50.096Z,99.99
2022-10-19T03:17:50.262Z,99.99
2022-10-19T03:18:50.440Z,99.99
2022-10-19T03:19:50.575Z,99.99
2022-10-19T03:20:50.681Z,99.99
2022-10-19T03:21:50.804Z,99.99
2022-10-19T03:22:50.983Z,99.99
2022-10-19T03:23:51.095Z,99.99
2022-10-19T03:24:51.229Z,99.99
2022-10-19T03:25:51.418Z,99.99
2022-10-19T03:26:51.513Z,99.99
2022-10-19T03:27:51.675Z,99.99
2022-10-19T03:28:51.852Z,99.99
2022-10-19T03:29:51.952Z,99.99
2022-10-19T03:30:52.050Z,99.99
2022-10-19T03:31:52.799Z,99.99
2022-10-19T03:32:52.403Z,99.99
2022-10-19T03:33:52.504Z,99.99
2022-10-19T03:34:52.651Z,99.99
2022-10-19T03:35:52.830Z,99.99
2022-10-19T03:36:53.000Z,99.99
2022-10-19T03:37:53.752Z,99.99
2022-10-19T03:38:53.232Z,99.99
2022-10-19T03:39:53.320Z,99.99
2022-10-19T03:40:53.497Z,99.99
2022-10-19T03:41:53.665Z,99.99
2022-10-19T03:42:53.883Z,99.99
2022-10-19T03:43:53.988Z,99.99
2022-10-19T03:44:54.129Z,99.99
2022-10-19T03:45:54.217Z,99.99
2022-10-19T03:46:54.384Z,99.99
2022-10-19T03:47:54.556Z,99.99
2022-10-19T03:48:54.662Z,99.99
2022-10-19T03:49:54.861Z,99.99
2022-10-19T03:50:54.980Z,99.99
2022-10-19T03:51:55.129Z,99.99
2022-10-19T03:52:55.410Z,99.99
2022-10-19T03:53:55.477Z,99.99
2022-10-19T03:54:55.637Z,99.99
2022-10-19T03:55:55.795Z,99.99
2022-10-19T03:56:55.966Z,99.99
2022-10-19T03:57:56.178Z,99.99
2022-10-19T03:58:56.225Z,99.99
2022-10-19T03:59:56.389Z,99.99
2022-10-19T04:00:56.561Z,99.99
2022-10-19T04:01:56.681Z,99.99
2022-10-19T04:02:56.805Z,99.99
2022-10-19T04:03:56.885Z,99.99
2022-10-19T04:04:57.047Z,99.99
2022-10-19T04:05:57.203Z,99.99
2022-10-19T04:06:57.358Z,99.99
2022-10-19T04:07:57.506Z,99.99
2022-10-19T04:08:57.639Z,99.99
2022-10-19T04:09:57.799Z,99.99
2022-10-19T04:10:57.985Z,99.99
2022-10-19T04:11:58.138Z,99.99
2022-10-19T04:12:58.235Z,99.99
2022-10-19T04:13:58.429Z,99.99
2022-10-19T04:14:58.459Z,99.99
2022-10-19T04:15:58.650Z,99.99
2022-10-19T04:16:58.746Z,99.99
2022-10-19T04:17:58.904Z,99.99
2022-10-19T04:18:59.012Z,99.99
2022-10-19T04:19:59.167Z,99.99
2022-10-19T04:20:59.357Z,99.99
2022-10-19T04:21:59.473Z,99.99
2022-10-19T04:22:59.605Z,99.99
2022-10-19T04:23:59.692Z,99.99
2022-10-19T04:24:59.833Z,99.99
2022-10-19T04:25:59.957Z,99.99
2022-10-19T04:27:00.051Z,99.99
2022-10-19T04:28:00.224Z,99.99
2022-10-19T04:29:00.456Z,99.99
2022-10-19T04:30:00.555Z,99.99
2022-10-19T04:31:00.678Z,99.99
2022-10-19T04:32:00.829Z,99.99
2022-10-19T04:33:00.963Z,99.99
2022-10-19T04:34:01.052Z,99.99
2022-10-19T04:35:01.230Z,99.99
2022-10-19T04:36:01.434Z,99.99
2022-10-19T04:37:01.572Z,99.99
2022-10-19T04:38:01.701Z,99.99
2022-10-19T04:39:01.822Z,99.99
2022-10-19T04:40:01.994Z,99.99
2022-10-19T04:41:02.100Z,99.99
2022-10-19T04:42:02.256Z,99.99
2022-10-19T04:43:02.451Z,99.99
2022-10-19T04:44:02.691Z,99.99
2022-10-19T04:45:02.741Z,99.99
2022-10-19T04:46:02.978Z,99.99
2022-10-19T04:47:03.012Z,99.99
2022-10-19T04:48:03.303Z,99.99
2022-10-19T04:49:03.329Z,99.99
2022-10-19T04:50:03.505Z,99.99
2022-10-19T04:51:03.599Z,99.99
2022-10-19T04:52:03.732Z,99.99
2022-10-19T04:53:03.846Z,99.99
2022-10-19T04:54:04.012Z,99.99
2022-10-19T04:55:04.172Z,99.99
2022-10-19T04:56:04.351Z,99.99
2022-10-19T04:57:04.427Z,99.99
2022-10-19T04:58:04.618Z,99.99
2022-10-19T04:59:04.735Z,99.99
2022-10-19T05:00:04.847Z,99.99
2022-10-19T05:01:04.987Z,99.99
2022-10-19T05:02:05.079Z,99.99
2022-10-19T05:03:05.163Z,99.99
2022-10-19T05:04:05.307Z,99.99
2022-10-19T05:05:05.419Z,99.99
2022-10-19T05:06:05.507Z,99.99
2022-10-19T05:07:05.701Z,99.99
2022-10-19T05:08:05.795Z,99.99
2022-10-19T05:09:05.918Z,99.99
2022-10-19T05:10:06.078Z,99.99
2022-10-19T05:11:06.236Z,99.99
2022-10-19T05:12:06.384Z,99.99
2022-10-19T05:13:06.546Z,99.99
2022-10-19T05:14:06.729Z,99.99
2022-10-19T05:15:06.885Z,99.99
2022-10-19T05:16:07.035Z,99.99
2022-10-19T05:17:07.178Z,99.99
2022-10-19T05:18:07.327Z,99.99
2022-10-19T05:19:07.481Z,99.99
2022-10-19T05:20:07.677Z,99.99
2022-10-19T05:21:07.755Z,99.99
2022-10-19T05:22:07.950Z,99.99
2022-10-19T05:23:08.086Z,99.99
2022-10-19T05:24:09.209Z,99.99
2022-10-19T05:25:08.458Z,99.99
2022-10-19T05:26:08.715Z,99.99
2022-10-19T05:27:08.713Z,99.99
2022-10-19T05:28:08.855Z,99.99
2022-10-19T05:29:09.053Z,99.99
2022-10-19T05:30:09.187Z,99.99
2022-10-19T05:31:09.263Z,99.99
2022-10-19T05:32:09.435Z,99.99
2022-10-19T05:33:09.584Z,99.99
2022-10-19T05:34:09.806Z,99.99
2022-10-19T05:35:10.499Z,99.99
2022-10-19T05:36:10.103Z,99.99
2022-10-19T05:37:10.171Z,99.99
2022-10-19T05:38:10.330Z,99.99
2022-10-19T05:39:10.484Z,99.99
2022-10-19T05:40:10.649Z,99.99
2022-10-19T05:41:10.750Z,99.99
2022-10-19T05:42:10.870Z,99.99
2022-10-19T05:43:11.037Z,99.99
2022-10-19T05:44:11.200Z,99.99
2022-10-19T05:45:11.303Z,99.99
2022-10-19T05:46:11.464Z,99.99
2022-10-19T05:47:11.621Z,99.99
2022-10-19T05:48:11.745Z,99.99
2022-10-19T05:49:11.919Z,99.99
2022-10-19T05:50:12.081Z,99.99
2022-10-19T05:51:12.241Z,99.99
2022-10-19T05:52:12.486Z,99.99
2022-10-19T05:53:12.589Z,99.99
2022-10-19T05:54:12.772Z,99.99
2022-10-19T05:55:12.830Z,99.99
2022-10-19T05:56:13.009Z,99.99
2022-10-19T05:57:13.108Z,99.99
2022-10-19T05:58:13.285Z,99.99
2022-10-19T05:59:13.394Z,99.99
2022-10-19T06:00:13.559Z,99.99
2022-10-19T06:01:13.719Z,99.99
2022-10-19T06:02:13.866Z,99.99
2022-10-19T06:03:13.919Z,99.99
2022-10-19T06:04:14.157Z,99.99
2022-10-19T06:05:14.137Z,99.99
2022-10-19T06:06:14.377Z,99.99
2022-10-19T06:07:14.558Z,99.99
2022-10-19T06:08:14.639Z,99.99
2022-10-19T06:09:14.758Z,99.99
2022-10-19T06:10:14.933Z,99.99
2022-10-19T06:11:15.115Z,99.99
2022-10-19T06:12:16.369Z,99.99
2022-10-19T06:13:15.430Z,99.99
2022-10-19T06:14:15.526Z,99.99
2022-10-19T06:15:15.636Z,99.99
2022-10-19T06:16:15.739Z,99.99
2022-10-19T06:17:15.902Z,99.99
2022-10-19T06:18:16.018Z,99.99
2022-10-19T06:19:16.232Z,99.99
2022-10-19T06:20:16.300Z,99.99
2022-10-19T06:21:16.446Z,99.99
2022-10-19T06:22:16.643Z,99.99
2022-10-19T06:23:16.737Z,99.99
2022-10-19T06:24:16.927Z,99.99
2022-10-19T06:25:20.189Z,99.99
2022-10-19T06:26:17.243Z,99.99
2022-10-19T06:27:17.297Z,99.99
2022-10-19T06:28:17.415Z,99.99
2022-10-19T06:29:17.544Z,99.99
2022-10-19T06:30:17.787Z,99.99
2022-10-19T06:31:17.933Z,99.99
2022-10-19T06:32:18.049Z,99.99
2022-10-19T06:33:18.137Z,99.99
2022-10-19T06:34:18.285Z,99.99
2022-10-19T06:35:18.391Z,99.99
2022-10-19T06:36:18.505Z,99.99
2022-10-19T06:37:18.608Z,99.99
2022-10-19T06:38:18.808Z,99.99
2022-10-19T06:39:18.917Z,99.99
2022-10-19T06:40:19.173Z,99.99
2022-10-19T06:41:19.218Z,99.99
2022-10-19T06:42:19.406Z,99.99
2022-10-19T06:43:19.493Z,99.99
2022-10-19T06:44:19.661Z,99.99
2022-10-19T06:45:19.836Z,99.99
2022-10-19T06:46:20.003Z,99.99
2022-10-19T06:47:20.157Z,99.99
2022-10-19T06:48:20.329Z,99.99
2022-10-19T06:49:20.506Z,99.99
2022-10-19T06:50:20.650Z,99.99
2022-10-19T06:51:20.721Z,99.99
2022-10-19T06:52:20.901Z,99.99
2022-10-19T06:53:21.012Z,99.99
2022-10-19T06:54:21.125Z,99.99
2022-10-19T06:55:21.230Z,99.99
2022-10-19T06:56:21.965Z,99.99
2022-10-19T06:57:21.507Z,99.99
2022-10-19T06:58:21.692Z,99.99
2022-10-19T06:59:21.803Z,99.99
2022-10-19T07:00:21.899Z,99.99
2022-10-19T07:01:22.134Z,99.99
2022-10-19T07:02:22.253Z,99.99
2022-10-19T07:03:22.351Z,99.99
2022-10-19T07:04:22.458Z,99.99
2022-10-19T07:05:22.584Z,99.99
2022-10-19T07:06:22.712Z,99.99
2022-10-19T07:07:22.940Z,99.99
2022-10-19T07:08:22.963Z,99.99
2022-10-19T07:09:23.101Z,99.99
2022-10-19T07:10:23.276Z,99.99
2022-10-19T07:11:23.422Z,99.99
2022-10-19T07:12:23.589Z,99.99
2022-10-19T07:13:23.748Z,99.99
2022-10-19T07:14:23.860Z,99.99
2022-10-19T07:15:24.049Z,99.99
2022-10-19T07:16:24.160Z,99.99
2022-10-19T07:17:24.241Z,99.99
2022-10-19T07:18:24.366Z,99.99
2022-10-19T07:19:24.544Z,99.99
2022-10-19T07:20:24.795Z,99.99
2022-10-19T07:21:24.774Z,99.99
2022-10-19T07:22:28.119Z,99.99
2022-10-19T07:23:25.037Z,99.99
2022-10-19T07:24:25.309Z,99.99
2022-10-19T07:25:25.368Z,99.99
2022-10-19T07:26:25.556Z,99.99
2022-10-19T07:27:25.658Z,99.99
2022-10-19T07:28:25.857Z,99.99
2022-10-19T07:29:25.976Z,99.99
2022-10-19T07:30:26.029Z,99.99
2022-10-19T07:31:26.189Z,99.99
2022-10-19T07:32:26.369Z,99.99
2022-10-19T07:33:26.538Z,99.99
2022-10-19T07:34:28.928Z,99.99
2022-10-19T07:35:26.758Z,99.99
2022-10-19T07:36:26.888Z,99.99
2022-10-19T07:37:26.977Z,99.99
2022-10-19T07:38:27.157Z,99.99
2022-10-19T07:39:27.267Z,99.99
2022-10-19T07:40:27.366Z,99.99
2022-10-19T07:41:27.466Z,99.99
2022-10-19T07:42:27.664Z,99.99
2022-10-19T07:43:27.741Z,99.99
2022-10-19T07:44:27.948Z,99.99
2022-10-19T07:45:28.039Z,99.99
2022-10-19T07:46:28.216Z,99.99
2022-10-19T07:47:28.310Z,99.99
2022-10-19T07:48:28.508Z,99.99
2022-10-19T07:49:28.676Z,99.99
2022-10-19T07:50:28.805Z,99.99
2022-10-19T07:52:30.802Z,99.99
2022-10-19T07:53:29.165Z,99.99
2022-10-19T07:54:29.346Z,99.99
2022-10-19T07:55:29.451Z,99.99
2022-10-19T07:56:29.535Z,99.99
2022-10-19T07:57:29.786Z,99.99
2022-10-19T07:58:29.916Z,99.99
2022-10-19T07:59:30.045Z,99.99
2022-10-19T08:00:30.229Z,99.99
2022-10-19T08:01:30.345Z,99.99
2022-10-19T08:02:39.486Z,99.99
2022-10-19T08:04:14.307Z,99.99
2022-10-19T08:04:59.085Z,99.99
2022-10-19T08:05:31.833Z,99.99
2022-10-19T08:06:30.950Z,99.99
2022-10-19T08:07:31.088Z,99.99
2022-10-19T08:08:31.206Z,99.99
2022-10-19T08:09:52.205Z,99.99
2022-10-19T08:10:32.393Z,99.99
2022-10-19T08:11:31.572Z,99.99
2022-10-19T08:12:32.002Z,99.99
2022-10-19T08:13:31.783Z,99.99
2022-10-19T08:14:31.894Z,99.99
2022-10-19T08:15:32.006Z,99.99
2022-10-19T08:16:32.114Z,99.99
2022-10-19T08:17:32.245Z,99.99
2022-10-19T08:19:32.494Z,99.99
2022-10-19T08:20:32.623Z,99.99
2022-10-19T08:21:32.741Z,99.99
2022-10-19T08:22:33.205Z,99.99
2022-10-19T08:23:32.990Z,99.99
2022-10-19T08:24:33.102Z,99.99
2022-10-19T08:25:33.211Z,99.99
2022-10-19T08:26:33.322Z,99.99
2022-10-19T08:27:33.517Z,99.99
2022-10-19T08:28:33.553Z,99.99
2022-10-19T08:29:33.676Z,99.99
2022-10-19T08:30:33.791Z,99.99
2022-10-19T08:31:33.915Z,99.99
2022-10-19T08:32:34.505Z,99.99
2022-10-19T08:33:34.151Z,99.99
2022-10-19T08:34:34.282Z,99.99
2022-10-19T08:35:34.391Z,99.99
2022-10-19T08:36:34.537Z,99.99
2022-10-19T08:37:45.294Z,99.99
2022-10-19T08:38:35.805Z,99.99
2022-10-19T08:39:34.904Z,99.99
2022-10-19T08:40:35.017Z,99.99
2022-10-19T08:41:35.168Z,99.99
2022-10-19T08:42:35.606Z,99.99
2022-10-19T08:43:35.424Z,99.99
2022-10-19T08:44:35.521Z,99.99
2022-10-19T08:45:35.706Z,99.99
2022-10-19T08:46:35.740Z,99.99
2022-10-19T08:47:36.053Z,99.99
2022-10-19T08:48:36.067Z,99.99
2022-10-19T08:49:36.208Z,99.99
2022-10-19T08:50:36.226Z,99.99
2022-10-19T08:51:36.332Z,99.99
2022-10-19T08:52:36.460Z,99.99
2022-10-19T08:53:36.541Z,99.99
2022-10-19T08:54:36.746Z,99.74
2022-10-19T08:55:36.816Z,99.54
2022-10-19T08:56:50.467Z,99.99
2022-10-19T08:57:38.085Z,99.90
2022-10-19T08:58:37.181Z,99.24
2022-10-19T08:59:37.299Z,98.22
2022-10-19T09:00:37.465Z,97.71
2022-10-19T09:01:37.845Z,97.71
2022-10-19T09:02:37.667Z,97.61
2022-10-19T09:03:54.932Z,97.56
2022-10-19T09:04:38.901Z,96.59
2022-10-19T09:05:38.018Z,96.54
2022-10-19T09:06:38.126Z,96.84
2022-10-19T09:07:38.242Z,96.39
2022-10-19T09:08:39.334Z,95.53
2022-10-19T09:09:38.637Z,95.64
2022-10-19T09:10:38.610Z,94.68
2022-10-19T09:11:38.730Z,93.77
2022-10-19T09:12:38.833Z,92.21
2022-10-19T09:13:47.190Z,91.33
2022-10-19T09:14:40.100Z,90.99
2022-10-19T09:15:39.231Z,88.76
2022-10-19T09:16:39.353Z,89.37
2022-10-19T09:17:39.473Z,88.87
2022-10-19T09:18:39.599Z,88.81
2022-10-19T09:19:39.704Z,88.71
2022-10-19T09:20:39.831Z,88.65
2022-10-19T09:21:44.586Z,89.15
2022-10-19T09:22:41.090Z,88.20
2022-10-19T09:23:40.242Z,87.40
2022-10-19T09:24:40.360Z,85.72
2022-10-19T09:25:40.483Z,87.63
2022-10-19T09:26:40.591Z,87.99
2022-10-19T09:27:40.724Z,88.34
2022-10-19T09:28:40.830Z,88.16
2022-10-19T09:29:40.947Z,86.86
2022-10-19T09:30:41.073Z,85.44
2022-10-19T09:31:41.181Z,84.48
2022-10-19T09:32:41.322Z,83.67
2022-10-19T09:33:41.430Z,83.73
2022-10-19T09:34:41.539Z,83.06
2022-10-19T09:35:41.709Z,83.77
2022-10-19T09:36:56.964Z,83.06
2022-10-19T09:37:42.901Z,83.26
2022-10-19T09:38:42.040Z,83.57
2022-10-19T09:39:50.401Z,83.00
2022-10-19T09:40:43.250Z,83.54
2022-10-19T09:41:42.354Z,83.85
2022-10-19T09:42:42.476Z,83.85
2022-10-19T09:43:42.618Z,83.24
2022-10-19T09:44:42.763Z,83.51
2022-10-19T09:45:42.886Z,83.00
2022-10-19T09:46:43.006Z,82.59
2022-10-19T09:47:43.142Z,82.80
2022-10-19T09:48:43.254Z,81.18
2022-10-19T09:49:43.361Z,82.35
2022-10-19T09:50:43.473Z,81.24
2022-10-19T09:51:43.593Z,81.60
2022-10-19T09:52:43.729Z,81.16
2022-10-19T09:53:43.855Z,79.30
2022-10-19T09:54:43.955Z,78.49
2022-10-19T09:55:44.199Z,77.24
2022-10-19T09:56:44.190Z,77.44
2022-10-19T09:57:44.342Z,76.50
2022-10-19T09:58:44.416Z,75.81
2022-10-19T09:59:44.546Z,74.66
2022-10-19T10:00:44.670Z,74.06
2022-10-19T10:01:44.896Z,73.62
2022-10-19T10:03:45.027Z,72.58
2022-10-19T10:04:45.130Z,71.67
2022-10-19T10:05:45.252Z,70.93
2022-10-19T10:06:45.363Z,71.00
2022-10-19T10:07:45.482Z,69.35
2022-10-19T10:08:45.652Z,69.72
2022-10-19T10:09:45.750Z,67.88
2022-10-19T10:10:45.899Z,66.83
2022-10-19T10:11:46.087Z,67.21
2022-10-19T10:12:46.111Z,64.80
2022-10-19T10:13:46.233Z,64.20
2022-10-19T10:14:46.332Z,62.86
2022-10-19T10:15:46.451Z,63.35
2022-10-19T10:16:46.564Z,64.32
2022-10-19T10:17:46.699Z,64.69
2022-10-19T10:18:46.814Z,64.13
2022-10-19T10:19:46.935Z,62.39
2022-10-19T10:20:47.058Z,61.91
2022-10-19T10:21:47.185Z,62.19
2022-10-19T10:22:47.301Z,61.33
2022-10-19T10:23:47.433Z,60.29
2022-10-19T10:24:47.540Z,59.42
2022-10-19T10:25:47.661Z,59.01
2022-10-19T10:26:47.774Z,58.75
2022-10-19T10:27:47.889Z,59.45
2022-10-19T10:28:48.000Z,59.25
2022-10-19T10:29:48.136Z,58.77
2022-10-19T10:30:48.234Z,59.00
2022-10-19T10:31:48.381Z,59.80
2022-10-19T10:32:48.579Z,59.53
2022-10-19T10:33:48.662Z,59.63
2022-10-19T10:34:52.194Z,60.47
2022-10-19T10:35:49.837Z,61.40
2022-10-19T10:36:48.950Z,62.10
2022-10-19T10:37:49.066Z,61.04
2022-10-19T10:38:49.238Z,61.24
2022-10-19T10:39:49.438Z,60.24
2022-10-19T10:40:49.441Z,60.97
2022-10-19T10:41:49.563Z,60.81
2022-10-19T10:42:49.695Z,60.18
2022-10-19T10:44:49.916Z,57.61
2022-10-19T10:45:50.036Z,57.15
2022-10-19T10:46:50.135Z,56.56
2022-10-19T10:47:50.266Z,56.50
2022-10-19T10:48:52.740Z,55.13
2022-10-19T10:49:50.504Z,56.41
2022-10-19T10:50:50.604Z,58.14
2022-10-19T10:51:52.952Z,58.06
2022-10-19T10:52:50.863Z,56.27
2022-10-19T10:53:51.002Z,54.97
2022-10-19T10:54:51.116Z,55.32
2022-10-19T10:55:51.237Z,55.88
2022-10-19T10:56:51.357Z,56.91
2022-10-19T10:57:51.485Z,56.81
2022-10-19T10:58:51.575Z,57.21
2022-10-19T10:59:51.773Z,57.34
2022-10-19T11:00:51.865Z,58.14
2022-10-19T11:01:52.124Z,57.94
2022-10-19T11:02:52.125Z,57.81
2022-10-19T11:03:52.249Z,56.73
2022-10-19T11:04:52.579Z,55.57
2022-10-19T11:05:52.472Z,55.10
2022-10-19T11:06:52.596Z,56.30
2022-10-19T11:07:52.734Z,58.04
2022-10-19T11:08:52.912Z,57.71
2022-10-19T11:09:52.984Z,56.65
2022-10-19T11:10:53.108Z,56.45
2022-10-19T11:11:53.254Z,56.88
2022-10-19T11:12:53.366Z,57.51
2022-10-19T11:13:53.476Z,57.48
2022-10-19T11:14:53.565Z,57.01
2022-10-19T11:15:53.711Z,58.04
2022-10-19T11:16:53.842Z,58.29
2022-10-19T11:17:53.962Z,59.10
2022-10-19T11:18:54.084Z,58.92
2022-10-19T11:19:54.213Z,57.13
2022-10-19T11:20:54.328Z,56.65
2022-10-19T11:21:54.446Z,56.00
2022-10-19T11:22:54.545Z,56.63
2022-10-19T11:23:54.711Z,56.10
2022-10-19T11:24:54.800Z,55.77
2022-10-19T11:25:54.902Z,54.62
2022-10-19T11:26:55.030Z,52.67
2022-10-19T11:27:55.302Z,53.30
2022-10-19T11:28:55.287Z,52.34
2022-10-19T11:29:55.420Z,53.19
2022-10-19T11:30:55.532Z,52.47
2022-10-19T11:31:55.682Z,51.84
2022-10-19T11:32:55.747Z,52.69
2022-10-19T11:33:55.872Z,53.87
2022-10-19T11:34:56.004Z,55.27
2022-10-19T11:35:56.159Z,53.79
2022-10-19T11:36:56.315Z,52.57
2022-10-19T11:38:18.209Z,53.17
2022-10-19T11:38:57.520Z,52.39
2022-10-19T11:39:56.647Z,53.44
2022-10-19T11:41:16.837Z,53.79
2022-10-19T11:41:57.921Z,53.72
2022-10-19T11:42:57.027Z,53.02
2022-10-19T11:43:57.148Z,53.85
2022-10-19T11:44:57.275Z,53.82
2022-10-19T11:45:57.393Z,54.29
2022-10-19T11:46:57.495Z,52.84
2022-10-19T11:47:57.712Z,52.27
2022-10-19T11:48:57.732Z,53.59
2022-10-19T11:49:57.957Z,54.07
2022-10-19T11:50:58.944Z,54.64
2022-10-19T11:51:59.121Z,53.79
2022-10-19T11:52:58.220Z,53.49
2022-10-19T11:53:58.362Z,52.74
2022-10-19T11:54:58.494Z,52.52
2022-10-19T11:55:58.661Z,51.29
2022-10-19T11:57:03.988Z,52.12
2022-10-19T11:57:59.865Z,51.89
2022-10-19T11:58:58.979Z,52.62
2022-10-19T12:00:08.235Z,52.29
2022-10-19T12:01:00.235Z,51.62
2022-10-19T12:01:59.374Z,49.51
2022-10-19T12:03:02.847Z,49.46
2022-10-19T12:03:59.626Z,48.29
2022-10-19T12:04:59.735Z,46.64
2022-10-19T12:05:59.873Z,46.60
2022-10-19T12:07:00.001Z,48.49
2022-10-19T12:08:00.133Z,49.65
2022-10-19T12:09:00.305Z,50.92
2022-10-19T12:10:00.394Z,51.79
2022-10-19T12:11:00.562Z,50.25
2022-10-19T12:12:00.670Z,50.20
2022-10-19T12:13:00.787Z,52.04
2022-10-19T12:14:00.898Z,52.57
2022-10-19T12:15:00.994Z,53.44
2022-10-19T12:16:01.151Z,52.34
2022-10-19T12:17:01.408Z,51.79
2022-10-19T12:18:01.455Z,50.45
2022-10-19T12:19:01.534Z,50.32
2022-10-19T12:20:01.658Z,50.30
2022-10-19T12:21:01.784Z,51.64
2022-10-19T12:22:01.907Z,52.17
2022-10-19T12:23:02.015Z,52.47
2022-10-19T12:24:02.128Z,52.69
2022-10-19T12:25:02.255Z,52.59
2022-10-19T12:26:02.389Z,52.69
2022-10-19T12:27:02.516Z,53.07
2022-10-19T12:28:02.773Z,52.47
2022-10-19T12:29:02.961Z,53.82
2022-10-19T12:30:02.866Z,53.64
2022-10-19T12:31:02.996Z,54.32
2022-10-19T12:32:03.125Z,53.39
2022-10-19T12:33:03.225Z,53.82
2022-10-19T12:34:03.360Z,54.42
2022-10-19T12:35:03.512Z,52.99
2022-10-19T12:36:03.638Z,53.30
2022-10-19T12:37:03.779Z,52.97
2022-10-19T12:38:03.870Z,52.02
2022-10-19T12:39:03.997Z,52.42
2022-10-19T12:40:04.187Z,52.12
2022-10-19T12:41:04.282Z,52.84
2022-10-19T12:42:04.417Z,52.12
2022-10-19T12:43:04.556Z,52.22
2022-10-19T12:44:04.659Z,52.07
2022-10-19T12:45:04.780Z,53.64
2022-10-19T12:46:04.869Z,55.30
2022-10-19T12:47:05.025Z,55.93
2022-10-19T12:48:05.147Z,56.26
2022-10-19T12:49:05.291Z,56.65
2022-10-19T12:50:05.471Z,55.74
2022-10-19T12:51:05.491Z,54.77
2022-10-19T12:52:05.627Z,52.87
2022-10-19T12:53:05.812Z,53.22
2022-10-19T12:54:05.838Z,54.42
2022-10-19T12:55:05.978Z,54.57
2022-10-19T12:56:06.142Z,55.73
2022-10-19T12:57:06.247Z,55.85
2022-10-19T12:58:06.380Z,56.68
2022-10-19T12:59:06.498Z,57.31